sensor_id;sensor_type;location;lat;lon;timestamp;temperature;humidity
8994;DHT22;4532;50.886;4.700;2022-08-06T00:02:23;17.40;84.50
8994;DHT22;4532;50.886;4.700;2022-08-06T00:05:00;17.40;84.50
8994;DHT22;4532;50.886;4.700;2022-08-06T00:07:31;17.30;84.60
8994;DHT22;4532;50.886;4.700;2022-08-06T00:10:14;17.30;84.60
8994;DHT22;4532;50.886;4.700;2022-08-06T00:12:45;17.30;84.70
8994;DHT22;4532;50.886;4.700;2022-08-06T00:15:15;17.20;84.60
8994;DHT22;4532;50.886;4.700;2022-08-06T00:18:05;17.20;84.60
8994;DHT22;4532;50.886;4.700;2022-08-06T00:20:35;17.10;84.60
8994;DHT22;4532;50.886;4.700;2022-08-06T00:23:09;17.10;84.80
8994;DHT22;4532;50.886;4.700;2022-08-06T00:25:45;17.10;84.80
8994;DHT22;4532;50.886;4.700;2022-08-06T00:28:24;17.00;84.80
8994;DHT22;4532;50.886;4.700;2022-08-06T00:30:59;17.00;84.90
8994;DHT22;4532;50.886;4.700;2022-08-06T00:33:38;17.00;84.90
8994;DHT22;4532;50.886;4.700;2022-08-06T00:36:26;16.90;84.70
8994;DHT22;4532;50.886;4.700;2022-08-06T00:39:00;17.00;85.10
8994;DHT22;4532;50.886;4.700;2022-08-06T00:41:36;16.90;85.00
8994;DHT22;4532;50.886;4.700;2022-08-06T00:44:11;16.90;85.10
8994;DHT22;4532;50.886;4.700;2022-08-06T00:46:43;16.90;85.20
8994;DHT22;4532;50.886;4.700;2022-08-06T00:49:13;16.90;85.30
8994;DHT22;4532;50.886;4.700;2022-08-06T00:52:00;16.80;85.20
8994;DHT22;4532;50.886;4.700;2022-08-06T00:54:28;16.80;85.30
8994;DHT22;4532;50.886;4.700;2022-08-06T00:57:06;16.70;85.30
8994;DHT22;4532;50.886;4.700;2022-08-06T00:59:38;16.70;85.40
8994;DHT22;4532;50.886;4.700;2022-08-06T01:02:09;16.70;85.50
8994;DHT22;4532;50.886;4.700;2022-08-06T01:04:43;16.70;85.50
8994;DHT22;4532;50.886;4.700;2022-08-06T01:07:11;16.60;85.50
8994;DHT22;4532;50.886;4.700;2022-08-06T01:09:38;16.60;85.50
8994;DHT22;4532;50.886;4.700;2022-08-06T01:12:25;16.60;85.60
8994;DHT22;4532;50.886;4.700;2022-08-06T01:15:05;16.50;85.60
8994;DHT22;4532;50.886;4.700;2022-08-06T01:17:55;16.50;85.70
8994;DHT22;4532;50.886;4.700;2022-08-06T01:20:51;16.50;85.90
8994;DHT22;4532;50.886;4.700;2022-08-06T01:27:34;16.40;85.90
8994;DHT22;4532;50.886;4.700;2022-08-06T01:29:48;16.40;86.20
8994;DHT22;4532;50.886;4.700;2022-08-06T01:32:27;16.40;86.10
8994;DHT22;4532;50.886;4.700;2022-08-06T01:35:00;16.40;86.30
8994;DHT22;4532;50.886;4.700;2022-08-06T01:38:20;16.30;86.00
8994;DHT22;4532;50.886;4.700;2022-08-06T01:40:32;16.30;86.20
8994;DHT22;4532;50.886;4.700;2022-08-06T01:43:05;16.30;86.30
8994;DHT22;4532;50.886;4.700;2022-08-06T01:45:54;16.30;86.20
8994;DHT22;4532;50.886;4.700;2022-08-06T01:48:28;16.20;86.20
8994;DHT22;4532;50.886;4.700;2022-08-06T01:51:01;16.20;86.40
8994;DHT22;4532;50.886;4.700;2022-08-06T01:53:33;16.10;86.30
8994;DHT22;4532;50.886;4.700;2022-08-06T01:56:24;16.10;86.30
8994;DHT22;4532;50.886;4.700;2022-08-06T01:59:16;16.10;86.30
8994;DHT22;4532;50.886;4.700;2022-08-06T02:01:52;16.00;86.40
8994;DHT22;4532;50.886;4.700;2022-08-06T02:04:24;16.00;86.40
8994;DHT22;4532;50.886;4.700;2022-08-06T02:06:54;16.00;86.50
8994;DHT22;4532;50.886;4.700;2022-08-06T02:09:23;15.90;86.50
8994;DHT22;4532;50.886;4.700;2022-08-06T02:12:21;15.90;86.40
8994;DHT22;4532;50.886;4.700;2022-08-06T02:14:58;15.90;87.10
8994;DHT22;4532;50.886;4.700;2022-08-06T02:17:30;15.80;86.80
8994;DHT22;4532;50.886;4.700;2022-08-06T02:20:23;15.80;86.80
8994;DHT22;4532;50.886;4.700;2022-08-06T02:23:06;15.80;87.00
8994;DHT22;4532;50.886;4.700;2022-08-06T02:25:37;15.80;87.10
8994;DHT22;4532;50.886;4.700;2022-08-06T02:28:09;15.80;87.20
8994;DHT22;4532;50.886;4.700;2022-08-06T02:30:53;15.80;87.30
8994;DHT22;4532;50.886;4.700;2022-08-06T02:33:24;15.80;87.30
8994;DHT22;4532;50.886;4.700;2022-08-06T02:41:45;15.80;87.40
8994;DHT22;4532;50.886;4.700;2022-08-06T02:47:49;15.80;87.60
8994;DHT22;4532;50.886;4.700;2022-08-06T02:50:35;15.80;87.40
8994;DHT22;4532;50.886;4.700;2022-08-06T02:53:09;15.80;87.40
8994;DHT22;4532;50.886;4.700;2022-08-06T02:55:54;15.80;87.60
8994;DHT22;4532;50.886;4.700;2022-08-06T02:58:38;15.80;87.40
8994;DHT22;4532;50.886;4.700;2022-08-06T03:01:18;15.80;87.90
8994;DHT22;4532;50.886;4.700;2022-08-06T03:03:55;15.70;87.70
8994;DHT22;4532;50.886;4.700;2022-08-06T03:06:28;15.70;87.60
8994;DHT22;4532;50.886;4.700;2022-08-06T03:08:58;15.70;87.50
8994;DHT22;4532;50.886;4.700;2022-08-06T03:11:29;15.60;87.50
8994;DHT22;4532;50.886;4.700;2022-08-06T03:14:03;15.60;88.00
8994;DHT22;4532;50.886;4.700;2022-08-06T03:16:53;15.60;88.20
8994;DHT22;4532;50.886;4.700;2022-08-06T03:19:26;15.60;88.40
8994;DHT22;4532;50.886;4.700;2022-08-06T03:22:15;15.50;88.30
8994;DHT22;4532;50.886;4.700;2022-08-06T03:25:04;15.50;88.30
8994;DHT22;4532;50.886;4.700;2022-08-06T03:27:32;15.50;88.10
8994;DHT22;4532;50.886;4.700;2022-08-06T03:30:15;15.50;88.30
8994;DHT22;4532;50.886;4.700;2022-08-06T03:33:03;15.40;88.10
8994;DHT22;4532;50.886;4.700;2022-08-06T03:35:55;15.40;88.00
8994;DHT22;4532;50.886;4.700;2022-08-06T03:38:25;15.30;88.00
8994;DHT22;4532;50.886;4.700;2022-08-06T03:40:57;15.30;88.10
8994;DHT22;4532;50.886;4.700;2022-08-06T03:43:28;15.30;88.00
8994;DHT22;4532;50.886;4.700;2022-08-06T03:46:30;15.30;88.20
8994;DHT22;4532;50.886;4.700;2022-08-06T03:49:02;15.20;88.30
8994;DHT22;4532;50.886;4.700;2022-08-06T03:51:31;15.20;88.40
8994;DHT22;4532;50.886;4.700;2022-08-06T03:54:29;15.20;88.50
8994;DHT22;4532;50.886;4.700;2022-08-06T03:57:11;15.20;88.80
8994;DHT22;4532;50.886;4.700;2022-08-06T03:59:41;15.10;88.80
8994;DHT22;4532;50.886;4.700;2022-08-06T04:02:38;15.10;88.60
8994;DHT22;4532;50.886;4.700;2022-08-06T04:05:21;15.10;89.00
8994;DHT22;4532;50.886;4.700;2022-08-06T04:07:52;15.00;88.70
8994;DHT22;4532;50.886;4.700;2022-08-06T04:10:43;15.00;88.80
8994;DHT22;4532;50.886;4.700;2022-08-06T04:13:24;15.00;89.40
8994;DHT22;4532;50.886;4.700;2022-08-06T04:16:15;15.00;89.00
8994;DHT22;4532;50.886;4.700;2022-08-06T04:18:59;15.00;89.20
8994;DHT22;4532;50.886;4.700;2022-08-06T04:21:27;14.90;89.20
8994;DHT22;4532;50.886;4.700;2022-08-06T04:24:14;14.90;89.20
8994;DHT22;4532;50.886;4.700;2022-08-06T04:26:44;14.90;89.20
8994;DHT22;4532;50.886;4.700;2022-08-06T04:29:17;14.90;89.20
8994;DHT22;4532;50.886;4.700;2022-08-06T04:31:49;14.90;89.20
8994;DHT22;4532;50.886;4.700;2022-08-06T04:34:38;14.90;89.40
8994;DHT22;4532;50.886;4.700;2022-08-06T04:37:28;14.80;89.30
8994;DHT22;4532;50.886;4.700;2022-08-06T04:40:08;14.90;89.60
8994;DHT22;4532;50.886;4.700;2022-08-06T04:42:48;14.90;89.50
8994;DHT22;4532;50.886;4.700;2022-08-06T04:45:17;14.90;89.60
8994;DHT22;4532;50.886;4.700;2022-08-06T04:48:08;14.90;89.70
8994;DHT22;4532;50.886;4.700;2022-08-06T04:50:43;14.90;89.70
8994;DHT22;4532;50.886;4.700;2022-08-06T04:53:15;14.90;89.50
8994;DHT22;4532;50.886;4.700;2022-08-06T04:56:04;15.00;89.80
8994;DHT22;4532;50.886;4.700;2022-08-06T04:58:32;15.00;89.90
8994;DHT22;4532;50.886;4.700;2022-08-06T05:01:06;15.00;90.00
8994;DHT22;4532;50.886;4.700;2022-08-06T05:03:37;15.00;90.00
8994;DHT22;4532;50.886;4.700;2022-08-06T05:06:46;15.10;89.60
8994;DHT22;4532;50.886;4.700;2022-08-06T05:09:24;15.10;90.00
8994;DHT22;4532;50.886;4.700;2022-08-06T05:12:19;15.20;89.90
8994;DHT22;4532;50.886;4.700;2022-08-06T05:17:32;15.20;90.00
8994;DHT22;4532;50.886;4.700;2022-08-06T05:20:09;15.20;90.00
8994;DHT22;4532;50.886;4.700;2022-08-06T05:23:00;15.30;90.20
8994;DHT22;4532;50.886;4.700;2022-08-06T05:25:45;15.30;90.20
8994;DHT22;4532;50.886;4.700;2022-08-06T05:28:20;15.30;90.50
8994;DHT22;4532;50.886;4.700;2022-08-06T05:30:51;15.30;90.20
8994;DHT22;4532;50.886;4.700;2022-08-06T05:33:28;15.30;90.30
8994;DHT22;4532;50.886;4.700;2022-08-06T05:36:00;15.40;90.50
8994;DHT22;4532;50.886;4.700;2022-08-06T05:38:35;15.40;90.50
8994;DHT22;4532;50.886;4.700;2022-08-06T05:41:10;15.40;90.50
8994;DHT22;4532;50.886;4.700;2022-08-06T05:43:40;15.40;90.50
8994;DHT22;4532;50.886;4.700;2022-08-06T05:46:33;15.50;90.50
8994;DHT22;4532;50.886;4.700;2022-08-06T05:49:25;15.50;90.60
8994;DHT22;4532;50.886;4.700;2022-08-06T05:52:21;15.60;90.70
8994;DHT22;4532;50.886;4.700;2022-08-06T06:00:14;15.70;90.60
8994;DHT22;4532;50.886;4.700;2022-08-06T06:03:06;15.70;90.70
8994;DHT22;4532;50.886;4.700;2022-08-06T06:05:53;15.80;90.80
8994;DHT22;4532;50.886;4.700;2022-08-06T06:08:40;15.80;90.80
8994;DHT22;4532;50.886;4.700;2022-08-06T06:11:26;15.90;90.80
8994;DHT22;4532;50.886;4.700;2022-08-06T06:20:17;16.00;90.90
8994;DHT22;4532;50.886;4.700;2022-08-06T06:23:11;16.10;91.00
8994;DHT22;4532;50.886;4.700;2022-08-06T06:29:15;16.20;91.20
8994;DHT22;4532;50.886;4.700;2022-08-06T06:35:07;16.40;91.20
8994;DHT22;4532;50.886;4.700;2022-08-06T06:37:46;16.50;91.30
8994;DHT22;4532;50.886;4.700;2022-08-06T06:46:51;16.70;91.50
8994;DHT22;4532;50.886;4.700;2022-08-06T06:49:32;16.80;91.50
8994;DHT22;4532;50.886;4.700;2022-08-06T06:52:22;16.90;91.60
8994;DHT22;4532;50.886;4.700;2022-08-06T06:57:50;17.10;91.70
8994;DHT22;4532;50.886;4.700;2022-08-06T07:00:18;17.10;91.70
8994;DHT22;4532;50.886;4.700;2022-08-06T07:03:06;17.20;91.70
8994;DHT22;4532;50.886;4.700;2022-08-06T07:05:40;17.30;91.70
8994;DHT22;4532;50.886;4.700;2022-08-06T07:08:32;17.40;91.70
8994;DHT22;4532;50.886;4.700;2022-08-06T07:11:13;17.40;91.70
8994;DHT22;4532;50.886;4.700;2022-08-06T07:13:48;17.50;91.80
8994;DHT22;4532;50.886;4.700;2022-08-06T07:16:21;17.60;92.10
8994;DHT22;4532;50.886;4.700;2022-08-06T07:19:09;17.70;91.90
8994;DHT22;4532;50.886;4.700;2022-08-06T07:21:42;17.80;91.90
8994;DHT22;4532;50.886;4.700;2022-08-06T07:24:20;17.80;91.90
8994;DHT22;4532;50.886;4.700;2022-08-06T07:27:08;17.80;92.00
8994;DHT22;4532;50.886;4.700;2022-08-06T07:29:41;17.90;92.00
8994;DHT22;4532;50.886;4.700;2022-08-06T07:32:27;17.90;92.20
8994;DHT22;4532;50.886;4.700;2022-08-06T07:35:08;18.00;92.00
8994;DHT22;4532;50.886;4.700;2022-08-06T07:37:54;18.00;92.00
8994;DHT22;4532;50.886;4.700;2022-08-06T07:40:32;18.20;91.90
8994;DHT22;4532;50.886;4.700;2022-08-06T07:43:08;18.30;91.90
8994;DHT22;4532;50.886;4.700;2022-08-06T07:45:52;18.30;91.90
8994;DHT22;4532;50.886;4.700;2022-08-06T07:48:27;18.40;91.90
8994;DHT22;4532;50.886;4.700;2022-08-06T07:51:00;18.40;92.00
8994;DHT22;4532;50.886;4.700;2022-08-06T07:53:35;18.40;92.00
8994;DHT22;4532;50.886;4.700;2022-08-06T07:56:24;18.50;92.10
8994;DHT22;4532;50.886;4.700;2022-08-06T07:58:54;18.60;92.10
8994;DHT22;4532;50.886;4.700;2022-08-06T08:01:24;18.60;92.20
8994;DHT22;4532;50.886;4.700;2022-08-06T08:04:09;18.60;92.20
8994;DHT22;4532;50.886;4.700;2022-08-06T08:07:05;18.70;92.40
8994;DHT22;4532;50.886;4.700;2022-08-06T08:09:39;18.70;92.30
8994;DHT22;4532;50.886;4.700;2022-08-06T08:12:28;18.70;92.20
8994;DHT22;4532;50.886;4.700;2022-08-06T08:15:06;18.80;92.20
8994;DHT22;4532;50.886;4.700;2022-08-06T08:17:45;18.90;92.30
8994;DHT22;4532;50.886;4.700;2022-08-06T08:20:29;18.90;92.20
8994;DHT22;4532;50.886;4.700;2022-08-06T08:23:04;19.00;92.20
8994;DHT22;4532;50.886;4.700;2022-08-06T08:25:34;19.00;92.30
8994;DHT22;4532;50.886;4.700;2022-08-06T08:28:10;19.10;92.40
8994;DHT22;4532;50.886;4.700;2022-08-06T08:30:44;19.10;92.50
8994;DHT22;4532;50.886;4.700;2022-08-06T08:33:20;19.20;92.50
8994;DHT22;4532;50.886;4.700;2022-08-06T08:35:48;19.20;92.50
8994;DHT22;4532;50.886;4.700;2022-08-06T08:40:59;19.40;92.50
8994;DHT22;4532;50.886;4.700;2022-08-06T08:43:35;19.40;92.50
8994;DHT22;4532;50.886;4.700;2022-08-06T08:46:27;19.50;92.20
8994;DHT22;4532;50.886;4.700;2022-08-06T08:49:01;19.50;92.20
8994;DHT22;4532;50.886;4.700;2022-08-06T08:51:36;19.50;92.30
8994;DHT22;4532;50.886;4.700;2022-08-06T08:54:11;19.50;92.10
8994;DHT22;4532;50.886;4.700;2022-08-06T08:56:44;19.50;92.20
8994;DHT22;4532;50.886;4.700;2022-08-06T08:59:33;19.50;92.20
8994;DHT22;4532;50.886;4.700;2022-08-06T09:02:26;19.50;92.20
8994;DHT22;4532;50.886;4.700;2022-08-06T09:04:57;19.50;92.10
8994;DHT22;4532;50.886;4.700;2022-08-06T09:07:25;19.50;91.90
8994;DHT22;4532;50.886;4.700;2022-08-06T09:10:07;19.50;91.90
8994;DHT22;4532;50.886;4.700;2022-08-06T09:12:42;19.50;92.00
8994;DHT22;4532;50.886;4.700;2022-08-06T09:15:17;19.50;92.00
8994;DHT22;4532;50.886;4.700;2022-08-06T09:17:46;19.50;92.00
8994;DHT22;4532;50.886;4.700;2022-08-06T09:20:35;19.50;92.00
8994;DHT22;4532;50.886;4.700;2022-08-06T09:23:03;19.50;92.10
8994;DHT22;4532;50.886;4.700;2022-08-06T09:25:50;19.60;92.20
8994;DHT22;4532;50.886;4.700;2022-08-06T09:28:36;19.70;92.30
8994;DHT22;4532;50.886;4.700;2022-08-06T09:33:41;19.80;92.20
8994;DHT22;4532;50.886;4.700;2022-08-06T09:36:44;19.80;92.20
8994;DHT22;4532;50.886;4.700;2022-08-06T09:39:17;19.80;92.30
8994;DHT22;4532;50.886;4.700;2022-08-06T09:42:40;19.80;92.20
8994;DHT22;4532;50.886;4.700;2022-08-06T09:45:11;19.90;91.80
8994;DHT22;4532;50.886;4.700;2022-08-06T09:47:44;20.00;91.80
8994;DHT22;4532;50.886;4.700;2022-08-06T09:50:40;20.10;91.40
8994;DHT22;4532;50.886;4.700;2022-08-06T09:53:11;20.10;90.80
8994;DHT22;4532;50.886;4.700;2022-08-06T09:55:41;20.10;91.10
8994;DHT22;4532;50.886;4.700;2022-08-06T09:58:10;20.10;91.20
8994;DHT22;4532;50.886;4.700;2022-08-06T10:00:38;20.10;91.00
8994;DHT22;4532;50.886;4.700;2022-08-06T10:03:08;20.10;91.20
8994;DHT22;4532;50.886;4.700;2022-08-06T10:06:07;20.20;91.30
8994;DHT22;4532;50.886;4.700;2022-08-06T10:08:38;20.20;91.30
8994;DHT22;4532;50.886;4.700;2022-08-06T10:11:07;20.20;91.40
8994;DHT22;4532;50.886;4.700;2022-08-06T10:13:36;20.30;91.30
8994;DHT22;4532;50.886;4.700;2022-08-06T10:16:22;20.30;91.50
8994;DHT22;4532;50.886;4.700;2022-08-06T10:18:59;20.40;91.00
8994;DHT22;4532;50.886;4.700;2022-08-06T10:21:45;20.40;91.30
8994;DHT22;4532;50.886;4.700;2022-08-06T10:24:14;20.40;90.90
8994;DHT22;4532;50.886;4.700;2022-08-06T10:27:06;20.40;90.90
8994;DHT22;4532;50.886;4.700;2022-08-06T10:29:44;20.50;90.70
8994;DHT22;4532;50.886;4.700;2022-08-06T10:32:15;20.50;90.80
8994;DHT22;4532;50.886;4.700;2022-08-06T10:34:44;20.50;91.20
8994;DHT22;4532;50.886;4.700;2022-08-06T10:37:16;20.50;91.30
8994;DHT22;4532;50.886;4.700;2022-08-06T10:40:08;20.50;90.70
8994;DHT22;4532;50.886;4.700;2022-08-06T10:42:40;20.60;90.60
8994;DHT22;4532;50.886;4.700;2022-08-06T10:45:10;20.50;90.40
8994;DHT22;4532;50.886;4.700;2022-08-06T10:47:44;20.50;90.80
8994;DHT22;4532;50.886;4.700;2022-08-06T10:50:32;20.70;90.10
8994;DHT22;4532;50.886;4.700;2022-08-06T10:53:13;20.70;90.00
8994;DHT22;4532;50.886;4.700;2022-08-06T10:56:07;20.70;90.30
8994;DHT22;4532;50.886;4.700;2022-08-06T10:58:36;20.70;90.20
8994;DHT22;4532;50.886;4.700;2022-08-06T11:01:09;20.70;89.50
8994;DHT22;4532;50.886;4.700;2022-08-06T11:04:04;20.70;90.10
8994;DHT22;4532;50.886;4.700;2022-08-06T11:09:31;20.80;89.00
8994;DHT22;4532;50.886;4.700;2022-08-06T11:15:18;20.90;89.30
8994;DHT22;4532;50.886;4.700;2022-08-06T11:17:54;20.90;89.70
8994;DHT22;4532;50.886;4.700;2022-08-06T11:23:23;21.10;90.00
8994;DHT22;4532;50.886;4.700;2022-08-06T11:26:10;21.10;90.20
8994;DHT22;4532;50.886;4.700;2022-08-06T11:28:58;21.10;90.20
8994;DHT22;4532;50.886;4.700;2022-08-06T11:31:45;21.20;90.60
8994;DHT22;4532;50.886;4.700;2022-08-06T11:34:41;21.30;89.80
8994;DHT22;4532;50.886;4.700;2022-08-06T11:37:42;21.40;90.30
8994;DHT22;4532;50.886;4.700;2022-08-06T11:41:07;21.40;90.10
8994;DHT22;4532;50.886;4.700;2022-08-06T11:46:40;21.50;87.60
8994;DHT22;4532;50.886;4.700;2022-08-06T11:49:24;21.50;88.80
8994;DHT22;4532;50.886;4.700;2022-08-06T11:55:14;21.60;90.00
8994;DHT22;4532;50.886;4.700;2022-08-06T12:00:59;21.80;88.50
8994;DHT22;4532;50.886;4.700;2022-08-06T12:03:47;21.80;89.50
8994;DHT22;4532;50.886;4.700;2022-08-06T12:06:23;21.90;86.60
8994;DHT22;4532;50.886;4.700;2022-08-06T12:09:31;21.90;87.40
8994;DHT22;4532;50.886;4.700;2022-08-06T12:14:57;21.90;87.50
8994;DHT22;4532;50.886;4.700;2022-08-06T12:17:32;21.90;88.00
8994;DHT22;4532;50.886;4.700;2022-08-06T12:20:37;21.90;87.90
8994;DHT22;4532;50.886;4.700;2022-08-06T12:23:14;22.00;88.70
8994;DHT22;4532;50.886;4.700;2022-08-06T12:25:47;22.10;86.60
8994;DHT22;4532;50.886;4.700;2022-08-06T12:28:17;22.20;88.90
8994;DHT22;4532;50.886;4.700;2022-08-06T12:30:52;22.30;90.00
8994;DHT22;4532;50.886;4.700;2022-08-06T12:33:21;22.40;87.90
8994;DHT22;4532;50.886;4.700;2022-08-06T12:38:23;22.50;88.30
8994;DHT22;4532;50.886;4.700;2022-08-06T12:40:58;22.50;89.00
8994;DHT22;4532;50.886;4.700;2022-08-06T12:43:42;22.50;86.20
8994;DHT22;4532;50.886;4.700;2022-08-06T12:46:24;22.40;85.50
8994;DHT22;4532;50.886;4.700;2022-08-06T12:48:59;22.50;87.50
8994;DHT22;4532;50.886;4.700;2022-08-06T12:51:30;22.50;86.30
8994;DHT22;4532;50.886;4.700;2022-08-06T12:54:06;22.60;84.80
8994;DHT22;4532;50.886;4.700;2022-08-06T12:56:38;22.60;87.00
8994;DHT22;4532;50.886;4.700;2022-08-06T12:59:10;22.70;88.30
8994;DHT22;4532;50.886;4.700;2022-08-06T13:01:51;22.80;87.30
8994;DHT22;4532;50.886;4.700;2022-08-06T13:04:44;22.90;88.10
8994;DHT22;4532;50.886;4.700;2022-08-06T13:07:14;22.90;84.10
8994;DHT22;4532;50.886;4.700;2022-08-06T13:09:43;22.90;86.20
8994;DHT22;4532;50.886;4.700;2022-08-06T13:12:30;22.90;86.60
8994;DHT22;4532;50.886;4.700;2022-08-06T13:15:18;23.00;86.80
8994;DHT22;4532;50.886;4.700;2022-08-06T13:20:55;23.20;85.10
8994;DHT22;4532;50.886;4.700;2022-08-06T13:25:55;23.20;84.60
8994;DHT22;4532;50.886;4.700;2022-08-06T13:28:52;23.20;85.50
8994;DHT22;4532;50.886;4.700;2022-08-06T13:34:29;23.20;84.70
8994;DHT22;4532;50.886;4.700;2022-08-06T13:36:57;23.30;85.00
8994;DHT22;4532;50.886;4.700;2022-08-06T13:39:30;23.30;85.90
8994;DHT22;4532;50.886;4.700;2022-08-06T13:42:08;23.40;85.60
8994;DHT22;4532;50.886;4.700;2022-08-06T13:44:43;23.40;84.70
8994;DHT22;4532;50.886;4.700;2022-08-06T13:47:13;23.50;85.30
8994;DHT22;4532;50.886;4.700;2022-08-06T13:50:06;23.50;83.10
8994;DHT22;4532;50.886;4.700;2022-08-06T13:52:34;23.40;84.60
8994;DHT22;4532;50.886;4.700;2022-08-06T13:55:01;23.30;81.30
8994;DHT22;4532;50.886;4.700;2022-08-06T13:57:35;23.30;84.30
8994;DHT22;4532;50.886;4.700;2022-08-06T14:00:10;23.30;84.80
8994;DHT22;4532;50.886;4.700;2022-08-06T14:02:42;23.40;83.60
8994;DHT22;4532;50.886;4.700;2022-08-06T14:05:11;23.40;81.80
8994;DHT22;4532;50.886;4.700;2022-08-06T14:07:49;23.50;84.10
8994;DHT22;4532;50.886;4.700;2022-08-06T14:10:17;23.50;84.50
8994;DHT22;4532;50.886;4.700;2022-08-06T14:12:57;23.60;83.20
8994;DHT22;4532;50.886;4.700;2022-08-06T14:15:50;23.60;85.30
8994;DHT22;4532;50.886;4.700;2022-08-06T14:18:19;23.70;84.30
8994;DHT22;4532;50.886;4.700;2022-08-06T14:20:47;23.80;85.60
8994;DHT22;4532;50.886;4.700;2022-08-06T14:23:18;23.80;84.50
8994;DHT22;4532;50.886;4.700;2022-08-06T14:25:51;23.90;86.00
8994;DHT22;4532;50.886;4.700;2022-08-06T14:28:29;23.90;84.80
8994;DHT22;4532;50.886;4.700;2022-08-06T14:30:57;23.90;85.70
8994;DHT22;4532;50.886;4.700;2022-08-06T14:33:26;23.90;86.20
8994;DHT22;4532;50.886;4.700;2022-08-06T14:36:04;23.90;84.60
8994;DHT22;4532;50.886;4.700;2022-08-06T14:38:33;24.00;84.20
8994;DHT22;4532;50.886;4.700;2022-08-06T14:41:05;24.00;85.70
8994;DHT22;4532;50.886;4.700;2022-08-06T14:44:11;24.00;84.10
8994;DHT22;4532;50.886;4.700;2022-08-06T14:46:59;24.10;84.50
8994;DHT22;4532;50.886;4.700;2022-08-06T14:49:27;24.10;85.20
8994;DHT22;4532;50.886;4.700;2022-08-06T14:52:12;24.10;80.40
8994;DHT22;4532;50.886;4.700;2022-08-06T14:54:50;24.00;80.80
8994;DHT22;4532;50.886;4.700;2022-08-06T14:57:33;24.00;81.30
8994;DHT22;4532;50.886;4.700;2022-08-06T15:00:23;24.00;82.80
8994;DHT22;4532;50.886;4.700;2022-08-06T15:03:01;24.00;82.20
8994;DHT22;4532;50.886;4.700;2022-08-06T15:05:28;23.90;82.20
8994;DHT22;4532;50.886;4.700;2022-08-06T15:08:16;23.90;79.80
8994;DHT22;4532;50.886;4.700;2022-08-06T15:10:43;23.80;80.10
8994;DHT22;4532;50.886;4.700;2022-08-06T15:13:11;23.80;80.70
8994;DHT22;4532;50.886;4.700;2022-08-06T15:15:43;23.80;81.40
8994;DHT22;4532;50.886;4.700;2022-08-06T15:18:15;23.90;81.90
8994;DHT22;4532;50.886;4.700;2022-08-06T15:21:03;23.90;82.60
8994;DHT22;4532;50.886;4.700;2022-08-06T15:23:40;23.90;82.00
8994;DHT22;4532;50.886;4.700;2022-08-06T15:26:21;24.00;82.40
8994;DHT22;4532;50.886;4.700;2022-08-06T15:29:09;24.00;81.80
8994;DHT22;4532;50.886;4.700;2022-08-06T15:31:43;24.10;80.90
8994;DHT22;4532;50.886;4.700;2022-08-06T15:34:12;24.10;80.00
8994;DHT22;4532;50.886;4.700;2022-08-06T15:36:46;24.10;79.80
8994;DHT22;4532;50.886;4.700;2022-08-06T15:39:31;24.10;78.90
8994;DHT22;4532;50.886;4.700;2022-08-06T15:42:20;24.10;80.00
8994;DHT22;4532;50.886;4.700;2022-08-06T15:44:52;24.10;81.20
8994;DHT22;4532;50.886;4.700;2022-08-06T15:47:21;24.10;81.80
8994;DHT22;4532;50.886;4.700;2022-08-06T15:50:01;24.10;82.30
8994;DHT22;4532;50.886;4.700;2022-08-06T15:52:32;24.20;82.20
8994;DHT22;4532;50.886;4.700;2022-08-06T15:55:04;24.20;83.20
8994;DHT22;4532;50.886;4.700;2022-08-06T15:57:47;24.30;82.90
8994;DHT22;4532;50.886;4.700;2022-08-06T16:00:35;24.40;79.30
8994;DHT22;4532;50.886;4.700;2022-08-06T16:03:05;24.40;80.20
8994;DHT22;4532;50.886;4.700;2022-08-06T16:05:37;24.40;78.70
8994;DHT22;4532;50.886;4.700;2022-08-06T16:08:27;24.30;78.70
8994;DHT22;4532;50.886;4.700;2022-08-06T16:11:10;24.30;78.50
8994;DHT22;4532;50.886;4.700;2022-08-06T16:13:40;24.30;80.50
8994;DHT22;4532;50.886;4.700;2022-08-06T16:16:20;24.40;79.40
8994;DHT22;4532;50.886;4.700;2022-08-06T16:19:01;24.30;80.60
8994;DHT22;4532;50.886;4.700;2022-08-06T16:21:29;24.30;80.20
8994;DHT22;4532;50.886;4.700;2022-08-06T16:24:03;24.40;80.40
8994;DHT22;4532;50.886;4.700;2022-08-06T16:26:31;24.30;80.90
8994;DHT22;4532;50.886;4.700;2022-08-06T16:29:10;24.40;80.80
8994;DHT22;4532;50.886;4.700;2022-08-06T16:31:37;24.50;80.10
8994;DHT22;4532;50.886;4.700;2022-08-06T16:34:17;24.50;81.80
8994;DHT22;4532;50.886;4.700;2022-08-06T16:36:57;24.50;81.50
8994;DHT22;4532;50.886;4.700;2022-08-06T16:39:27;24.60;81.80
8994;DHT22;4532;50.886;4.700;2022-08-06T16:42:05;24.70;82.80
8994;DHT22;4532;50.886;4.700;2022-08-06T16:44:33;24.70;80.90
8994;DHT22;4532;50.886;4.700;2022-08-06T16:47:16;24.80;82.90
8994;DHT22;4532;50.886;4.700;2022-08-06T16:49:48;24.90;83.30
8994;DHT22;4532;50.886;4.700;2022-08-06T16:52:35;25.00;83.30
8994;DHT22;4532;50.886;4.700;2022-08-06T16:55:22;25.00;84.10
8994;DHT22;4532;50.886;4.700;2022-08-06T16:57:52;25.10;83.00
8994;DHT22;4532;50.886;4.700;2022-08-06T17:00:27;25.10;79.10
8994;DHT22;4532;50.886;4.700;2022-08-06T17:03:17;25.10;81.10
8994;DHT22;4532;50.886;4.700;2022-08-06T17:06:04;25.20;80.30
8994;DHT22;4532;50.886;4.700;2022-08-06T17:08:32;25.30;82.10
8994;DHT22;4532;50.886;4.700;2022-08-06T17:11:00;25.30;82.40
8994;DHT22;4532;50.886;4.700;2022-08-06T17:13:28;25.30;81.60
8994;DHT22;4532;50.886;4.700;2022-08-06T17:16:05;25.30;78.30
8994;DHT22;4532;50.886;4.700;2022-08-06T17:18:39;25.40;79.00
8994;DHT22;4532;50.886;4.700;2022-08-06T17:21:15;25.40;80.30
8994;DHT22;4532;50.886;4.700;2022-08-06T17:23:42;25.40;80.20
8994;DHT22;4532;50.886;4.700;2022-08-06T17:26:14;25.40;76.70
8994;DHT22;4532;50.886;4.700;2022-08-06T17:29:03;25.40;79.90
8994;DHT22;4532;50.886;4.700;2022-08-06T17:31:32;25.30;77.80
8994;DHT22;4532;50.886;4.700;2022-08-06T17:34:19;25.30;77.70
8994;DHT22;4532;50.886;4.700;2022-08-06T17:36:50;25.30;78.90
8994;DHT22;4532;50.886;4.700;2022-08-06T17:39:17;25.40;80.20
8994;DHT22;4532;50.886;4.700;2022-08-06T17:42:07;25.40;78.50
8994;DHT22;4532;50.886;4.700;2022-08-06T17:44:37;25.30;77.10
8994;DHT22;4532;50.886;4.700;2022-08-06T17:47:10;25.40;76.60
8994;DHT22;4532;50.886;4.700;2022-08-06T17:49:37;25.30;77.30
8994;DHT22;4532;50.886;4.700;2022-08-06T17:52:11;25.30;78.40
8994;DHT22;4532;50.886;4.700;2022-08-06T17:54:44;25.30;78.80
8994;DHT22;4532;50.886;4.700;2022-08-06T17:57:25;25.30;78.90
8994;DHT22;4532;50.886;4.700;2022-08-06T18:00:12;25.30;77.80
8994;DHT22;4532;50.886;4.700;2022-08-06T18:03:00;25.30;79.30
8994;DHT22;4532;50.886;4.700;2022-08-06T18:05:28;25.30;75.90
8994;DHT22;4532;50.886;4.700;2022-08-06T18:08:03;25.20;76.80
8994;DHT22;4532;50.886;4.700;2022-08-06T18:10:47;25.20;78.50
8994;DHT22;4532;50.886;4.700;2022-08-06T18:13:17;25.20;78.50
8994;DHT22;4532;50.886;4.700;2022-08-06T18:15:46;25.20;78.00
8994;DHT22;4532;50.886;4.700;2022-08-06T18:18:18;25.10;78.10
8994;DHT22;4532;50.886;4.700;2022-08-06T18:20:48;25.00;77.80
8994;DHT22;4532;50.886;4.700;2022-08-06T18:23:15;25.00;78.50
8994;DHT22;4532;50.886;4.700;2022-08-06T18:25:52;24.90;78.20
8994;DHT22;4532;50.886;4.700;2022-08-06T18:28:30;24.90;77.50
8994;DHT22;4532;50.886;4.700;2022-08-06T18:31:16;24.90;78.60
8994;DHT22;4532;50.886;4.700;2022-08-06T18:33:46;24.80;78.80
8994;DHT22;4532;50.886;4.700;2022-08-06T18:36:19;24.80;78.60